createdAt,value
2023-01-25T00:00:38.000Z,1031.2
2023-01-25T00:01:55.000Z,1031.2
2023-01-25T00:03:11.000Z,1031.2
2023-01-25T00:04:27.000Z,1031.1
2023-01-25T00:05:43.000Z,1031.1
2023-01-25T00:07:00.000Z,1031.1
2023-01-25T00:08:16.000Z,1031.1
2023-01-25T00:09:32.000Z,1031.1
2023-01-25T00:10:49.000Z,1031.1
2023-01-25T00:12:05.000Z,1031.2
2023-01-25T00:13:20.000Z,1031.1
2023-01-25T00:14:36.000Z,1031
2023-01-25T00:15:53.000Z,1031.1
2023-01-25T00:17:09.000Z,1030.9
2023-01-25T00:18:25.000Z,1030.9
2023-01-25T00:19:42.000Z,1030.9
2023-01-25T00:20:58.000Z,1030.9
2023-01-25T00:22:14.000Z,1030.9
2023-01-25T00:23:30.000Z,1030.9
2023-01-25T00:24:47.000Z,1030.8
2023-01-25T00:26:03.000Z,1030.8
2023-01-25T00:27:20.081Z,1030.8
2023-01-25T00:28:36.000Z,1030.8
2023-01-25T00:29:51.000Z,1030.7
2023-01-25T00:31:07.000Z,1030.7
2023-01-25T00:32:24.000Z,1030.7
2023-01-25T00:33:40.000Z,1030.7
2023-01-25T00:34:56.826Z,1030.7
2023-01-25T00:36:12.000Z,1030.7
2023-01-25T00:37:29.000Z,1030.7
2023-01-25T00:38:45.000Z,1030.7
2023-01-25T00:40:01.000Z,1030.7
2023-01-25T00:41:18.000Z,1030.7
2023-01-25T00:42:34.000Z,1030.7
2023-01-25T00:43:50.833Z,1030.7
2023-01-25T00:45:06.000Z,1030.7
2023-01-25T00:46:22.000Z,1030.7
2023-01-25T00:47:38.705Z,1030.7
2023-01-25T00:48:54.000Z,1030.7
2023-01-25T00:50:11.000Z,1030.7
2023-01-25T00:51:27.000Z,1030.7
2023-01-25T00:52:43.000Z,1030.7
2023-01-25T00:53:59.000Z,1030.8
2023-01-25T00:55:16.000Z,1030.7
2023-01-25T00:56:32.000Z,1030.7
2023-01-25T00:57:49.018Z,1030.7
2023-01-25T00:59:05.000Z,1030.7
2023-01-25T01:00:21.000Z,1030.7
2023-01-25T01:01:37.000Z,1030.6
2023-01-25T01:02:52.000Z,1030.7
2023-01-25T01:04:09.000Z,1030.7
2023-01-25T01:05:25.000Z,1030.7
2023-01-25T01:06:41.000Z,1030.7
2023-01-25T01:07:58.000Z,1030.7
2023-01-25T01:09:14.000Z,1030.7
2023-01-25T01:10:30.000Z,1030.7
2023-01-25T01:11:46.000Z,1030.7
2023-01-25T01:13:03.000Z,1030.6
2023-01-25T01:14:19.000Z,1030.6
2023-01-25T01:15:35.000Z,1030.7
2023-01-25T01:16:52.000Z,1030.6
2023-01-25T01:18:08.000Z,1030.7
2023-01-25T01:19:23.000Z,1030.6
2023-01-25T01:20:40.000Z,1030.6
2023-01-25T01:21:56.000Z,1030.7
2023-01-25T01:23:12.000Z,1030.7
2023-01-25T01:24:28.000Z,1030.7
2023-01-25T01:25:45.000Z,1030.6
2023-01-25T01:27:01.000Z,1030.6
2023-01-25T01:28:17.000Z,1030.6
2023-01-25T01:29:34.000Z,1030.6
2023-01-25T01:30:50.000Z,1030.6
2023-01-25T01:32:06.000Z,1030.6
2023-01-25T01:33:22.000Z,1030.5
2023-01-25T01:34:39.432Z,1030.6
2023-01-25T01:35:54.000Z,1030.6
2023-01-25T01:37:10.000Z,1030.6
2023-01-25T01:38:27.000Z,1030.5
2023-01-25T01:39:43.000Z,1030.6
2023-01-25T01:40:59.000Z,1030.5
2023-01-25T01:42:15.000Z,1030.6
2023-01-25T01:43:32.000Z,1030.6
2023-01-25T01:44:48.000Z,1030.5
2023-01-25T01:46:04.000Z,1030.6
2023-01-25T01:47:21.000Z,1030.5
2023-01-25T01:48:37.000Z,1030.5
2023-01-25T01:49:53.000Z,1030.5
2023-01-25T01:51:09.000Z,1030.5
2023-01-25T01:52:25.000Z,1030.5
2023-01-25T01:53:41.761Z,1030.5
2023-01-25T01:54:57.000Z,1030.5
2023-01-25T01:56:14.000Z,1030.5
2023-01-25T01:57:30.000Z,1030.5
2023-01-25T01:58:46.000Z,1030.5
2023-01-25T02:00:02.241Z,1030.5
2023-01-25T02:01:17.000Z,1030.5
2023-01-25T02:02:33.000Z,1030.5
2023-01-25T02:03:49.000Z,1030.5
2023-01-25T02:05:05.000Z,1030.5
2023-01-25T02:06:20.000Z,1030.5
2023-01-25T02:07:37.004Z,1030.4
2023-01-25T02:08:53.000Z,1030.4
2023-01-25T02:10:09.000Z,1030.4
2023-01-25T02:11:25.000Z,1030.5
2023-01-25T02:12:41.000Z,1030.5
2023-01-25T02:13:58.000Z,1030.5
2023-01-25T02:15:14.000Z,1030.4
2023-01-25T02:16:31.042Z,1030.5
2023-01-25T02:17:47.312Z,1030.4
2023-01-25T02:19:03.000Z,1030.5
2023-01-25T02:20:19.000Z,1030.4
2023-01-25T02:21:36.183Z,1030.5
2023-01-25T02:22:51.000Z,1030.5
2023-01-25T02:24:07.000Z,1030.5
2023-01-25T02:25:24.071Z,1030.5
2023-01-25T02:26:40.000Z,1030.5
2023-01-25T02:27:56.000Z,1030.5
2023-01-25T02:29:12.000Z,1030.5
2023-01-25T02:30:28.000Z,1030.5
2023-01-25T02:31:45.000Z,1030.5
2023-01-25T02:33:01.000Z,1030.5
2023-01-25T02:34:17.000Z,1030.6
2023-01-25T02:35:34.000Z,1030.6
2023-01-25T02:36:50.000Z,1030.6
2023-01-25T02:38:06.000Z,1030.5
2023-01-25T02:39:22.000Z,1030.6
2023-01-25T02:40:38.000Z,1030.5
2023-01-25T02:41:54.000Z,1030.5
2023-01-25T02:43:10.000Z,1030.5
2023-01-25T02:44:27.000Z,1030.6
2023-01-25T02:45:43.000Z,1030.6
2023-01-25T02:46:59.000Z,1030.5
2023-01-25T02:48:16.000Z,1030.5
2023-01-25T02:49:32.000Z,1030.5
2023-01-25T02:50:48.000Z,1030.4
2023-01-25T02:52:04.000Z,1030.4
2023-01-25T02:53:21.000Z,1030.4
2023-01-25T02:54:37.000Z,1030.4
2023-01-25T02:55:52.000Z,1030.4
2023-01-25T02:57:09.000Z,1030.3
2023-01-25T02:58:25.000Z,1030.3
2023-01-25T02:59:41.000Z,1030.2
2023-01-25T03:00:57.000Z,1030.3
2023-01-25T03:02:14.000Z,1030.2
2023-01-25T03:03:30.742Z,1030.3
2023-01-25T03:04:46.000Z,1030.2
2023-01-25T03:06:03.000Z,1030.2
2023-01-25T03:07:19.000Z,1030.2
2023-01-25T03:08:35.000Z,1030.2
2023-01-25T03:09:51.000Z,1030.2
2023-01-25T03:11:08.470Z,1030.1
2023-01-25T03:12:23.000Z,1030.1
2023-01-25T03:13:39.000Z,1030
2023-01-25T03:14:56.000Z,1030.1
2023-01-25T03:16:11.000Z,1030.1
2023-01-25T03:17:27.000Z,1030.1
2023-01-25T03:18:43.000Z,1030
2023-01-25T03:20:00.000Z,1030.1
2023-01-25T03:21:15.000Z,1030
2023-01-25T03:22:30.000Z,1030
2023-01-25T03:23:47.000Z,1030
2023-01-25T03:25:03.000Z,1029.9
2023-01-25T03:26:19.000Z,1029.9
2023-01-25T03:27:36.000Z,1029.9
2023-01-25T03:28:51.612Z,1029.9
2023-01-25T03:30:06.000Z,1029.9
2023-01-25T03:31:23.194Z,1029.9
2023-01-25T03:32:39.000Z,1029.9
2023-01-25T03:33:55.000Z,1029.8
2023-01-25T03:35:11.000Z,1029.9
2023-01-25T03:36:28.000Z,1029.8
2023-01-25T03:37:44.630Z,1029.8
2023-01-25T03:39:00.000Z,1029.8
2023-01-25T03:40:16.000Z,1029.7
2023-01-25T03:41:33.514Z,1029.7
2023-01-25T03:42:49.000Z,1029.7
2023-01-25T03:44:05.000Z,1029.7
2023-01-25T03:45:22.363Z,1029.7
2023-01-25T03:46:37.000Z,1029.6
2023-01-25T03:47:53.000Z,1029.6
2023-01-25T03:49:10.000Z,1029.6
2023-01-25T03:50:26.000Z,1029.6
2023-01-25T03:51:42.828Z,1029.6
2023-01-25T03:52:58.000Z,1029.6
2023-01-25T03:54:15.000Z,1029.6
2023-01-25T03:55:30.000Z,1029.5
2023-01-25T03:56:45.000Z,1029.5
2023-01-25T03:58:02.000Z,1029.5
2023-01-25T03:59:17.000Z,1029.5
2023-01-25T04:00:32.000Z,1029.5
2023-01-25T04:01:48.000Z,1029.4
2023-01-25T04:03:05.000Z,1029.5
2023-01-25T04:04:21.773Z,1029.4
2023-01-25T04:05:37.000Z,1029.4
2023-01-25T04:06:54.000Z,1029.4
2023-01-25T04:08:10.000Z,1029.4
2023-01-25T04:09:26.000Z,1029.4
2023-01-25T04:10:42.000Z,1029.3
2023-01-25T04:11:59.000Z,1029.3
2023-01-25T04:13:15.000Z,1029.3
2023-01-25T04:14:31.000Z,1029.3
2023-01-25T04:15:48.000Z,1029.3
2023-01-25T04:17:03.000Z,1029.3
2023-01-25T04:18:19.000Z,1029.3
2023-01-25T04:19:36.252Z,1029.3
2023-01-25T04:20:52.000Z,1029.2
2023-01-25T04:22:08.000Z,1029.2
2023-01-25T04:23:24.000Z,1029.2
2023-01-25T04:24:41.000Z,1029.2
2023-01-25T04:25:56.000Z,1029.1
2023-01-25T04:27:11.000Z,1029.2
2023-01-25T04:28:28.000Z,1029.2
2023-01-25T04:29:43.000Z,1029.2
2023-01-25T04:30:59.000Z,1029.2
2023-01-25T04:32:14.000Z,1029.1
2023-01-25T04:33:31.000Z,1029.1
2023-01-25T04:34:47.000Z,1029.1
2023-01-25T04:36:03.000Z,1029.1
2023-01-25T04:37:20.000Z,1029.1
2023-01-25T04:38:36.000Z,1029.2
2023-01-25T04:39:52.000Z,1029.2
2023-01-25T04:41:08.000Z,1029.2
2023-01-25T04:42:25.000Z,1029.2
2023-01-25T04:43:41.000Z,1029.2
2023-01-25T04:44:58.097Z,1029.2
2023-01-25T04:46:14.000Z,1029.2
2023-01-25T04:47:30.000Z,1029.2
2023-01-25T04:48:45.000Z,1029.2
2023-01-25T04:50:02.000Z,1029.2
2023-01-25T04:51:18.000Z,1029.2
2023-01-25T04:52:34.000Z,1029.2
2023-01-25T04:53:50.000Z,1029.1
2023-01-25T04:55:07.000Z,1029.2
2023-01-25T04:56:23.000Z,1029.2
2023-01-25T04:57:39.988Z,1029.2
2023-01-25T04:58:56.000Z,1029.2
2023-01-25T05:00:12.000Z,1029.2
2023-01-25T05:01:28.000Z,1029.2
2023-01-25T05:02:44.000Z,1029.2
2023-01-25T05:04:01.000Z,1029.2
2023-01-25T05:05:16.000Z,1029.2
2023-01-25T05:06:32.000Z,1029.2
2023-01-25T05:07:49.000Z,1029.1
2023-01-25T05:09:05.000Z,1029.2
2023-01-25T05:10:21.000Z,1029.2
2023-01-25T05:11:37.000Z,1029.2
2023-01-25T05:12:54.000Z,1029.2
2023-01-25T05:14:10.000Z,1029.2
2023-01-25T05:15:26.000Z,1029.3
2023-01-25T05:16:43.000Z,1029.3
2023-01-25T05:17:59.000Z,1029.2
2023-01-25T05:19:15.000Z,1029.2
2023-01-25T05:20:31.000Z,1029.2
2023-01-25T05:21:47.000Z,1029.2
2023-01-25T05:23:03.000Z,1029.2
2023-01-25T05:24:19.000Z,1029.2
2023-01-25T05:25:36.000Z,1029.2
2023-01-25T05:26:52.000Z,1029.2
2023-01-25T05:28:08.000Z,1029.2
2023-01-25T05:29:24.000Z,1029.2
2023-01-25T05:30:41.000Z,1029.2
2023-01-25T05:31:57.000Z,1029.2
2023-01-25T05:33:13.000Z,1029.1
2023-01-25T05:34:30.000Z,1029
2023-01-25T05:35:46.000Z,1029
2023-01-25T05:37:02.000Z,1029.1
2023-01-25T05:38:18.000Z,1029.1
2023-01-25T05:39:34.000Z,1029
2023-01-25T05:40:50.000Z,1029
2023-01-25T05:42:07.154Z,1028.9
2023-01-25T05:43:23.000Z,1029
2023-01-25T05:44:39.000Z,1028.9
2023-01-25T05:45:55.000Z,1029
2023-01-25T05:47:12.000Z,1029
2023-01-25T05:48:28.000Z,1029
2023-01-25T05:49:44.000Z,1029.1
2023-01-25T05:51:00.000Z,1029.1
2023-01-25T05:52:17.000Z,1029.1
2023-01-25T05:53:33.000Z,1029.1
2023-01-25T05:54:48.000Z,1029.1
2023-01-25T05:56:05.000Z,1029.1
2023-01-25T05:57:21.000Z,1029.1
2023-01-25T05:58:37.000Z,1029.1
2023-01-25T05:59:53.000Z,1029.1
2023-01-25T06:01:10.000Z,1029.2
2023-01-25T06:02:26.767Z,1029.1
2023-01-25T06:03:43.041Z,1029.1
2023-01-25T06:04:59.357Z,1029.1
2023-01-25T06:06:15.000Z,1029.1
2023-01-25T06:07:31.000Z,1029.1
2023-01-25T06:08:47.000Z,1029.1
2023-01-25T06:10:04.000Z,1029.1
2023-01-25T06:11:19.000Z,1029.1
2023-01-25T06:12:35.000Z,1029.1
2023-01-25T06:13:52.000Z,1029.1
2023-01-25T06:15:08.000Z,1029.1
2023-01-25T06:16:24.000Z,1029.1
2023-01-25T06:17:40.000Z,1029.1
2023-01-25T06:18:57.000Z,1029.1
2023-01-25T06:20:13.000Z,1029.1
2023-01-25T06:21:29.000Z,1029.1
2023-01-25T06:22:46.000Z,1029.1
2023-01-25T06:24:02.000Z,1029.1
2023-01-25T06:25:18.000Z,1029.2
2023-01-25T06:26:35.263Z,1029.2
2023-01-25T06:27:50.000Z,1029.2
2023-01-25T06:29:06.833Z,1029.2
2023-01-25T06:30:22.000Z,1029.2
2023-01-25T06:31:39.000Z,1029.1
2023-01-25T06:32:55.000Z,1029.1
2023-01-25T06:34:11.000Z,1029.1
2023-01-25T06:35:28.000Z,1029.1
2023-01-25T06:36:44.000Z,1029
2023-01-25T06:38:00.000Z,1029
2023-01-25T06:40:33.000Z,1029
2023-01-25T06:41:49.000Z,1029
2023-01-25T06:43:05.000Z,1029.1
2023-01-25T06:44:21.000Z,1029
2023-01-25T06:45:37.000Z,1029.1
2023-01-25T06:46:53.000Z,1029.1
2023-01-25T06:48:10.172Z,1029.1
2023-01-25T06:49:26.000Z,1029.1
2023-01-25T06:50:42.000Z,1029.1
2023-01-25T06:51:58.000Z,1029
2023-01-25T06:53:14.000Z,1029.1
2023-01-25T06:54:31.000Z,1029
2023-01-25T06:55:47.000Z,1029.1
2023-01-25T06:57:03.000Z,1029
2023-01-25T06:58:19.000Z,1029
2023-01-25T06:59:36.000Z,1029.1
2023-01-25T07:00:51.000Z,1029.1
2023-01-25T07:02:07.000Z,1029
2023-01-25T07:03:24.000Z,1029
2023-01-25T07:04:40.000Z,1029
2023-01-25T07:05:56.000Z,1029.1
2023-01-25T07:07:12.000Z,1029.1
2023-01-25T07:08:29.000Z,1029.1
2023-01-25T07:09:45.000Z,1029.1
2023-01-25T07:11:01.000Z,1029.1
2023-01-25T07:12:17.000Z,1029.1
2023-01-25T07:13:34.200Z,1029
2023-01-25T07:14:50.000Z,1029
2023-01-25T07:16:06.000Z,1029
2023-01-25T07:17:21.916Z,1029
2023-01-25T07:18:37.000Z,1029
2023-01-25T07:19:54.000Z,1029
2023-01-25T07:21:10.000Z,1029
2023-01-25T07:22:26.000Z,1028.9
2023-01-25T07:23:42.000Z,1028.9
2023-01-25T07:24:59.000Z,1028.9
2023-01-25T07:26:15.000Z,1029
2023-01-25T07:27:31.000Z,1028.9
2023-01-25T07:28:47.000Z,1029
2023-01-25T07:30:04.267Z,1028.9
2023-01-25T07:31:19.000Z,1028.8
2023-01-25T07:32:35.000Z,1028.9
2023-01-25T07:33:51.000Z,1028.9
2023-01-25T07:35:07.000Z,1028.9
2023-01-25T07:36:24.446Z,1028.9
2023-01-25T07:37:40.000Z,1028.9
2023-01-25T07:38:56.000Z,1028.9
2023-01-25T07:40:12.000Z,1028.9
2023-01-25T07:41:29.376Z,1028.9
2023-01-25T07:42:45.598Z,1028.9
2023-01-25T07:44:01.000Z,1028.8
2023-01-25T07:45:17.000Z,1028.8
2023-01-25T07:46:34.000Z,1028.8
2023-01-25T07:47:49.000Z,1028.8
2023-01-25T07:49:05.000Z,1028.7
2023-01-25T07:50:21.000Z,1028.7
2023-01-25T07:51:38.000Z,1028.7
2023-01-25T07:52:54.000Z,1028.7
2023-01-25T07:54:10.000Z,1028.6
2023-01-25T07:55:26.000Z,1028.7
2023-01-25T07:56:42.000Z,1028.7
2023-01-25T07:57:59.000Z,1028.7
2023-01-25T07:59:15.000Z,1028.7
2023-01-25T08:00:31.000Z,1028.7
2023-01-25T08:01:47.000Z,1028.7
2023-01-25T08:03:03.398Z,1028.7
2023-01-25T08:04:18.000Z,1028.7
2023-01-25T08:05:33.000Z,1028.7
2023-01-25T08:06:49.158Z,1028.7
2023-01-25T08:08:05.398Z,1028.7
2023-01-25T08:09:21.000Z,1028.7
2023-01-25T08:10:37.000Z,1028.7
2023-01-25T08:11:53.000Z,1028.6
2023-01-25T08:13:10.000Z,1028.6
2023-01-25T08:14:26.000Z,1028.6
2023-01-25T08:15:42.000Z,1028.6
2023-01-25T08:16:58.000Z,1028.6
2023-01-25T08:18:15.000Z,1028.6
2023-01-25T08:19:31.491Z,1028.6
2023-01-25T08:20:47.736Z,1028.6
2023-01-25T08:22:03.958Z,1028.6
2023-01-25T08:23:18.000Z,1028.7
2023-01-25T08:24:35.000Z,1028.6
2023-01-25T08:25:51.000Z,1028.7
2023-01-25T08:27:07.000Z,1028.7
2023-01-25T08:28:23.000Z,1028.7
2023-01-25T08:29:40.000Z,1028.7
2023-01-25T08:30:56.000Z,1028.7
2023-01-25T08:32:12.867Z,1028.6
2023-01-25T08:33:28.000Z,1028.7
2023-01-25T08:34:45.000Z,1028.7
2023-01-25T08:36:01.000Z,1028.6
2023-01-25T08:37:17.000Z,1028.6
2023-01-25T08:38:33.000Z,1028.7
2023-01-25T08:39:49.000Z,1028.7
2023-01-25T08:41:05.000Z,1028.6
2023-01-25T08:42:21.000Z,1028.6
2023-01-25T08:43:37.000Z,1028.7
2023-01-25T08:44:53.000Z,1028.6
2023-01-25T08:46:10.000Z,1028.5
2023-01-25T08:47:26.000Z,1028.5
2023-01-25T08:48:42.000Z,1028.6
2023-01-25T08:51:15.000Z,1028.6
2023-01-25T08:52:31.000Z,1028.5
2023-01-25T08:53:47.000Z,1028.5
2023-01-25T08:55:03.000Z,1028.5
2023-01-25T08:56:19.000Z,1028.5
2023-01-25T08:57:35.000Z,1028.4
2023-01-25T09:00:07.000Z,1028.4
2023-01-25T09:01:24.000Z,1028.4
2023-01-25T09:02:40.000Z,1028.4
2023-01-25T09:03:56.000Z,1028.4
2023-01-25T09:05:12.990Z,1028.4
2023-01-25T09:06:28.000Z,1028.3
2023-01-25T09:07:45.000Z,1028.4
2023-01-25T09:09:01.000Z,1028.3
2023-01-25T09:10:17.000Z,1028.3
2023-01-25T09:11:34.147Z,1028.4
2023-01-25T09:12:49.000Z,1028.3
2023-01-25T09:14:05.000Z,1028.3
2023-01-25T09:15:21.000Z,1028.3
2023-01-25T09:16:37.000Z,1028.3
2023-01-25T09:17:54.000Z,1028.3
2023-01-25T09:19:10.000Z,1028.3
2023-01-25T09:20:26.000Z,1028.3
2023-01-25T09:21:42.000Z,1028.4
2023-01-25T09:22:59.000Z,1028.3
2023-01-25T09:24:15.535Z,1028.3
2023-01-25T09:25:31.000Z,1028.3
2023-01-25T09:26:47.000Z,1028.3
2023-01-25T09:28:03.000Z,1028.3
2023-01-25T09:29:19.000Z,1028.3
2023-01-25T09:30:35.683Z,1028.3
2023-01-25T09:31:51.000Z,1028.2
2023-01-25T09:33:07.000Z,1028.2
2023-01-25T09:34:24.000Z,1028.3
2023-01-25T09:35:40.000Z,1028.2
2023-01-25T09:38:12.000Z,1028.2
2023-01-25T09:39:29.000Z,1028.2
2023-01-25T09:40:45.579Z,1028.2
2023-01-25T09:42:01.000Z,1028.2
2023-01-25T09:43:18.054Z,1028.2
2023-01-25T09:44:34.000Z,1028.2
2023-01-25T09:45:49.000Z,1028.2
2023-01-25T09:47:05.000Z,1028.2
2023-01-25T09:48:21.000Z,1028.1
2023-01-25T09:49:37.000Z,1028.1
2023-01-25T09:50:52.516Z,1028.1
2023-01-25T09:52:07.000Z,1028.1
2023-01-25T09:53:22.000Z,1028.1
2023-01-25T09:54:38.000Z,1028.1
2023-01-25T09:55:55.460Z,1028.1
2023-01-25T09:57:11.000Z,1028.1
2023-01-25T09:58:27.000Z,1028.1
2023-01-25T09:59:43.000Z,1028.1
2023-01-25T10:01:00.000Z,1028.1
2023-01-25T10:02:16.000Z,1028
2023-01-25T10:03:32.882Z,1028.1
2023-01-25T10:04:48.000Z,1028
2023-01-25T10:06:05.357Z,1028
2023-01-25T10:07:21.000Z,1028
2023-01-25T10:08:37.000Z,1028
2023-01-25T10:09:53.073Z,1028
2023-01-25T10:11:09.000Z,1028
2023-01-25T10:12:25.000Z,1028
2023-01-25T10:13:41.000Z,1028
2023-01-25T10:16:13.000Z,1027.9
2023-01-25T10:17:30.000Z,1027.9
2023-01-25T10:18:46.000Z,1028
2023-01-25T10:20:01.000Z,1027.9
2023-01-25T10:21:16.000Z,1028
2023-01-25T10:22:33.000Z,1027.9
2023-01-25T10:23:49.000Z,1027.9
2023-01-25T10:25:05.000Z,1027.9
2023-01-25T10:26:21.000Z,1027.9
2023-01-25T10:27:37.000Z,1027.9
2023-01-25T10:28:52.000Z,1027.9
2023-01-25T10:30:08.000Z,1027.8
2023-01-25T10:31:24.000Z,1027.8
2023-01-25T10:32:41.000Z,1027.7
2023-01-25T10:33:57.000Z,1027.8
2023-01-25T10:35:13.000Z,1027.8
2023-01-25T10:36:29.000Z,1027.7
2023-01-25T10:37:46.000Z,1027.8
2023-01-25T10:39:02.000Z,1027.7
2023-01-25T10:40:18.763Z,1027.7
2023-01-25T10:41:34.000Z,1027.6
2023-01-25T10:42:50.000Z,1027.6
2023-01-25T10:44:07.473Z,1027.6
2023-01-25T10:45:22.000Z,1027.6
2023-01-25T10:46:38.000Z,1027.5
2023-01-25T10:47:54.000Z,1027.5
2023-01-25T10:49:11.000Z,1027.4
2023-01-25T10:50:27.000Z,1027.4
2023-01-25T10:51:43.000Z,1027.4
2023-01-25T10:53:00.116Z,1027.4
2023-01-25T10:54:16.000Z,1027.4
2023-01-25T10:55:31.000Z,1027.4
2023-01-25T10:56:46.000Z,1027.4
2023-01-25T10:58:01.000Z,1027.4
2023-01-25T10:59:17.395Z,1027.4
2023-01-25T11:00:33.609Z,1027.4
2023-01-25T11:01:49.000Z,1027.4
2023-01-25T11:03:05.000Z,1027.3
2023-01-25T11:04:22.000Z,1027.3
2023-01-25T11:06:54.000Z,1027.2
2023-01-25T11:08:10.000Z,1027.1
2023-01-25T11:09:27.243Z,1027.2
2023-01-25T11:10:43.000Z,1027.1
2023-01-25T11:11:59.000Z,1027.1
2023-01-25T11:13:15.000Z,1027.1
2023-01-25T11:14:31.000Z,1027.1
2023-01-25T11:15:47.000Z,1027
2023-01-25T11:17:03.000Z,1027
2023-01-25T11:18:19.000Z,1027
2023-01-25T11:19:35.000Z,1026.9
2023-01-25T11:20:52.000Z,1027
2023-01-25T11:22:08.000Z,1026.9
2023-01-25T11:23:24.000Z,1026.9
2023-01-25T11:24:40.000Z,1026.9
2023-01-25T11:25:57.000Z,1026.9
2023-01-25T11:27:13.000Z,1026.8
2023-01-25T11:28:29.000Z,1026.8
2023-01-25T11:29:46.017Z,1026.8
2023-01-25T11:31:02.277Z,1026.7
2023-01-25T11:32:18.000Z,1026.6
2023-01-25T11:33:33.000Z,1026.7
2023-01-25T11:34:49.982Z,1026.6
2023-01-25T11:36:05.000Z,1026.6
2023-01-25T11:37:22.000Z,1026.6
2023-01-25T11:38:38.000Z,1026.6
2023-01-25T11:39:54.000Z,1026.6
2023-01-25T11:41:10.000Z,1026.6
2023-01-25T11:42:27.000Z,1026.5
2023-01-25T11:43:43.000Z,1026.5
2023-01-25T11:44:59.000Z,1026.4
2023-01-25T11:46:14.000Z,1026.4
2023-01-25T11:47:31.000Z,1026.4
2023-01-25T11:48:47.000Z,1026.3
2023-01-25T11:50:03.800Z,1026.3
2023-01-25T11:51:19.000Z,1026.3
2023-01-25T11:52:36.000Z,1026.3
2023-01-25T11:53:52.000Z,1026.2
2023-01-25T11:55:08.000Z,1026.2
2023-01-25T11:57:40.000Z,1026.2
2023-01-25T11:58:57.000Z,1026.1
2023-01-25T12:00:13.000Z,1026.1
2023-01-25T12:01:29.000Z,1026.1
2023-01-25T12:02:45.170Z,1026
2023-01-25T12:04:01.000Z,1026
2023-01-25T12:05:17.000Z,1026.1
2023-01-25T12:06:32.000Z,1026
2023-01-25T12:07:47.000Z,1025.9
2023-01-25T12:09:04.376Z,1025.9
2023-01-25T12:10:20.000Z,1025.8
2023-01-25T12:11:36.000Z,1025.8
2023-01-25T12:12:52.000Z,1025.8
2023-01-25T12:14:09.000Z,1025.7
2023-01-25T12:15:25.000Z,1025.7
2023-01-25T12:16:41.794Z,1025.7
2023-01-25T12:17:57.000Z,1025.7
2023-01-25T12:19:14.000Z,1025.6
2023-01-25T12:20:30.000Z,1025.6
2023-01-25T12:21:46.000Z,1025.6
2023-01-25T12:23:02.000Z,1025.6
2023-01-25T12:24:17.000Z,1025.5
2023-01-25T12:25:34.000Z,1025.5
2023-01-25T12:26:50.000Z,1025.4
2023-01-25T12:28:06.000Z,1025.4
2023-01-25T12:29:22.000Z,1025.4
2023-01-25T12:30:39.000Z,1025.3
2023-01-25T12:31:54.000Z,1025.3
2023-01-25T12:33:09.000Z,1025.3
2023-01-25T12:34:25.000Z,1025.2
2023-01-25T12:35:42.000Z,1025.2
2023-01-25T12:36:58.562Z,1025.1
2023-01-25T12:38:14.000Z,1025.1
2023-01-25T12:39:30.000Z,1025.1
2023-01-25T12:40:47.000Z,1025.1
2023-01-25T12:42:03.000Z,1025.1
2023-01-25T12:43:19.000Z,1025
2023-01-25T12:44:35.000Z,1025
2023-01-25T12:45:51.000Z,1025
2023-01-25T12:48:24.000Z,1024.9
2023-01-25T12:49:39.000Z,1024.9
2023-01-25T12:50:55.000Z,1024.8
2023-01-25T12:52:12.000Z,1024.8
2023-01-25T12:53:28.000Z,1024.7
2023-01-25T12:54:44.000Z,1024.7
2023-01-25T12:56:00.000Z,1024.7
2023-01-25T12:57:17.000Z,1024.7
2023-01-25T12:58:33.000Z,1024.6
2023-01-25T13:01:05.000Z,1024.6
2023-01-25T13:02:22.000Z,1024.6
2023-01-25T13:03:38.000Z,1024.6
2023-01-25T13:04:54.000Z,1024.5
2023-01-25T13:06:09.000Z,1024.5
2023-01-25T13:07:25.000Z,1024.5
2023-01-25T13:08:42.471Z,1024.5
2023-01-25T13:09:58.000Z,1024.4
2023-01-25T13:11:14.951Z,1024.3
2023-01-25T13:12:30.000Z,1024.4
2023-01-25T13:13:47.000Z,1024.4
2023-01-25T13:15:03.638Z,1024.4
2023-01-25T13:16:19.000Z,1024.4
2023-01-25T13:17:35.000Z,1024.3
2023-01-25T13:18:52.339Z,1024.3
2023-01-25T13:20:08.000Z,1024.3
2023-01-25T13:21:24.000Z,1024.2
2023-01-25T13:22:39.000Z,1024.2
2023-01-25T13:23:56.000Z,1024.3
2023-01-25T13:25:12.000Z,1024.2
2023-01-25T13:26:28.000Z,1024.2
2023-01-25T13:27:44.000Z,1024.2
2023-01-25T13:29:00.000Z,1024.2
2023-01-25T13:30:17.000Z,1024.2
2023-01-25T13:31:33.703Z,1024.2
2023-01-25T13:32:49.000Z,1024.2
2023-01-25T13:34:05.000Z,1024.2
2023-01-25T13:35:22.000Z,1024.2
2023-01-25T13:36:38.000Z,1024.2
2023-01-25T13:39:10.000Z,1024
2023-01-25T13:40:26.000Z,1024.1
2023-01-25T13:41:42.000Z,1024.1
2023-01-25T13:42:58.000Z,1024.1
2023-01-25T13:44:14.000Z,1024.1
2023-01-25T13:45:31.000Z,1024
2023-01-25T13:46:47.000Z,1024
2023-01-25T13:48:03.000Z,1024
2023-01-25T13:49:19.000Z,1023.9
2023-01-25T13:50:36.000Z,1024
2023-01-25T13:51:52.458Z,1024
2023-01-25T13:53:08.705Z,1024
2023-01-25T13:54:24.000Z,1024.1
2023-01-25T13:55:39.000Z,1024.1
2023-01-25T13:56:55.000Z,1024.1
2023-01-25T13:58:11.000Z,1024.1
2023-01-25T13:59:27.000Z,1024.1
2023-01-25T14:00:43.000Z,1024.1
2023-01-25T14:02:00.000Z,1024
2023-01-25T14:03:16.606Z,1024.1
2023-01-25T14:04:32.000Z,1024
2023-01-25T14:05:48.000Z,1024
2023-01-25T14:07:05.312Z,1024
2023-01-25T14:08:21.000Z,1024
2023-01-25T14:09:37.000Z,1023.9
2023-01-25T14:10:53.000Z,1023.9
2023-01-25T14:12:10.256Z,1023.9
2023-01-25T14:13:25.000Z,1023.9
2023-01-25T14:14:41.000Z,1024
2023-01-25T14:17:13.000Z,1023.9
2023-01-25T14:18:30.000Z,1023.9
2023-01-25T14:19:46.677Z,1023.9
2023-01-25T14:21:02.000Z,1023.9
2023-01-25T14:22:18.000Z,1023.9
2023-01-25T14:23:34.000Z,1023.9
2023-01-25T14:24:49.000Z,1023.9
2023-01-25T14:26:04.894Z,1023.9
2023-01-25T14:27:19.000Z,1023.9
2023-01-25T14:28:36.393Z,1023.9
2023-01-25T14:29:52.000Z,1023.9
2023-01-25T14:31:07.000Z,1023.9
2023-01-25T14:32:22.000Z,1023.9
2023-01-25T14:33:39.360Z,1023.9
2023-01-25T14:34:55.000Z,1023.8
2023-01-25T14:36:11.000Z,1023.8
2023-01-25T14:37:27.000Z,1023.8
2023-01-25T14:38:44.000Z,1023.7
2023-01-25T14:40:00.000Z,1023.7
2023-01-25T14:41:16.000Z,1023.7
2023-01-25T14:42:32.000Z,1023.7
2023-01-25T14:43:49.000Z,1023.7
2023-01-25T14:45:05.487Z,1023.7
2023-01-25T14:46:21.000Z,1023.7
2023-01-25T14:47:37.000Z,1023.6
2023-01-25T14:48:52.000Z,1023.6
2023-01-25T14:50:09.000Z,1023.6
2023-01-25T14:51:25.000Z,1023.6
2023-01-25T14:52:41.000Z,1023.6
2023-01-25T14:53:58.158Z,1023.5
2023-01-25T14:55:14.000Z,1023.5
2023-01-25T14:56:30.594Z,1023.5
2023-01-25T14:57:46.000Z,1023.5
2023-01-25T14:59:02.000Z,1023.5
2023-01-25T15:00:19.000Z,1023.5
2023-01-25T15:01:35.000Z,1023.5
2023-01-25T15:02:51.775Z,1023.5
2023-01-25T15:04:07.000Z,1023.5
2023-01-25T15:05:24.000Z,1023.4
2023-01-25T15:06:39.000Z,1023.4
2023-01-25T15:07:55.000Z,1023.4
2023-01-25T15:09:11.000Z,1023.4
2023-01-25T15:10:27.000Z,1023.3
2023-01-25T15:11:44.000Z,1023.3
2023-01-25T15:13:00.000Z,1023.2
2023-01-25T15:14:16.000Z,1023.2
2023-01-25T15:15:32.000Z,1023.2
2023-01-25T15:16:49.000Z,1023.2
2023-01-25T15:18:05.000Z,1023.3
2023-01-25T15:19:21.000Z,1023.3
2023-01-25T15:20:37.000Z,1023.3
2023-01-25T15:21:54.000Z,1023.4
2023-01-25T15:23:09.000Z,1023.3
2023-01-25T15:24:25.000Z,1023.3
2023-01-25T15:25:41.000Z,1023.2
2023-01-25T15:26:58.000Z,1023.3
2023-01-25T15:28:14.000Z,1023.2
2023-01-25T15:29:30.000Z,1023.2
2023-01-25T15:30:46.000Z,1023.3
2023-01-25T15:32:03.195Z,1023.2
2023-01-25T15:33:19.000Z,1023.2
2023-01-25T15:34:35.000Z,1023.1
2023-01-25T15:35:51.000Z,1023.2
2023-01-25T15:37:07.000Z,1023.2
2023-01-25T15:38:24.000Z,1023.2
2023-01-25T15:39:39.000Z,1023.2
2023-01-25T15:40:55.000Z,1023.2
2023-01-25T15:42:12.082Z,1023.2
2023-01-25T15:43:28.000Z,1023.2
2023-01-25T15:44:44.000Z,1023.2
2023-01-25T15:46:00.775Z,1023.2
2023-01-25T15:47:16.000Z,1023.1
2023-01-25T15:48:33.000Z,1023.1
2023-01-25T15:49:49.000Z,1023.2
2023-01-25T15:51:05.000Z,1023.2
2023-01-25T15:52:21.000Z,1023.2
2023-01-25T15:53:37.000Z,1023.2
2023-01-25T15:54:54.437Z,1023.2
2023-01-25T15:56:09.000Z,1023.1
2023-01-25T15:57:25.917Z,1023
2023-01-25T15:58:41.000Z,1023
2023-01-25T15:59:58.000Z,1023
2023-01-25T16:01:13.000Z,1023
2023-01-25T16:02:29.000Z,1023
2023-01-25T16:03:45.000Z,1023
2023-01-25T16:05:02.000Z,1023
2023-01-25T16:06:18.584Z,1023.1
2023-01-25T16:07:34.811Z,1023.1
2023-01-25T16:08:50.000Z,1023
2023-01-25T16:10:07.000Z,1023.1